Leonore, Illinois
Current Conditions -  °F | °C
As of 7:15 PM on Thursday 27 Nov 2014 (Local Time) from KVYS Reporting Station
Overcast Overcast  
Wind Chill: -14°   Ceiling: 2800
Heat Index: -8°   Visibility: 10mi
Dew Point: -12°   Wind: 8mph
Humidity: 75%   Direction: 280°W
Pressure: 30.43"   Gusts: NA
Location:  41.19°N, 88.98°W
Report Text: KVYS 280115Z AUTO 28007KT 10SM OVC028 M08/M12 A3043 RMK AO2 T10831120
Loading
Personal Weather Stations






























Interactive Weather Map New forecast layout! Learn more

10-Day Weather Forecast

Advertisements
Track Severe Weather on mobile